magnetbank.hu alexa rank chart, magnetbank.hu alexa rank daily changes

magnetbank.hu alexa rank chart, magnetbank.hu alexa rank daily changes

magnetbank.hu
Actual rank:
141 594

RANK HISTORY

Date Rank Diff
2017/11/24 141 594 -5 258
2017/11/23 146 852 -2 820
2017/11/22 149 672 +1 070
2017/11/21 148 602 +2 036
2017/11/20 146 566 +2 642
2017/11/19 143 924 +132
2017/11/18 143 792 +1 736
2017/11/17 142 056 -1 521
2017/11/16 143 577 -4 636
2017/11/15 148 213 -354
2017/11/14 148 567 +1 917
2017/11/13 146 650 +1 910
2017/11/12 144 740 +766
2017/11/11 143 974 -1 045
2017/11/10 145 019 -1 424
2017/11/09 146 443 -1 058
2017/11/08 147 501 -3 341
2017/11/07 150 842 -195
2017/11/06 151 037 +2 981
2017/11/05 148 056 -1 931
2017/11/04 149 987 -1 376
2017/11/03 151 363 -108
2017/11/02 151 471 -3 540
2017/11/01 155 011 -3 739
2017/10/31 158 750 +1 235
2017/10/30 157 515 +2 455
2017/10/29 155 060 +1 298
2017/10/28 153 762 -681
2017/10/27 154 443 -2 313
2017/10/26 156 756 -3 253
2017/10/25 160 009 -345
2017/10/24 160 354 +3 987
2017/10/23 156 367 +825
2017/10/22 155 542 -2 441
2017/10/21 157 983 +1 918
2017/10/20 156 065 +1 086
2017/10/19 154 979 -1 809
2017/10/18 156 788 -4 284
2017/10/17 161 072 +2 748
2017/10/16 158 324 +5 830
2017/10/14 152 494 -1 659
2017/10/13 154 153 +1 223
2017/10/12 152 930 -3 150
2017/10/11 156 080 -3 742
2017/10/10 159 822 +4 467
2017/10/09 155 355 +1 400
2017/10/08 153 955 -534
2017/10/07 154 489 -1 568
2017/10/06 156 057 -2 639
2017/10/05 158 696 -3 540
2017/10/04 162 236 -4 337
2017/10/03 166 573 +1 758
2017/10/02 164 815 +3 449
2017/10/01 161 366 +33
2017/09/30 161 333 +3 215
2017/09/29 158 118 -4 664
2017/09/28 162 782 -3 422
2017/09/27 166 204 -435
2017/09/26 166 639 +3 071
2017/09/25 163 568

WIDGET FOR YOUR SITE

DOMAINS WITH THE NEAREST RANK

Domain Rank
dokochina.com 141 589
the-athenaeum.org 141 590
mtn.co.ug 141 591
stadium.fi 141 592
avcome.tw 141 593
magnetbank.hu 141 594
followadder.com 141 595
englishlads.com 141 596
audiokinetic.com 141 597
dek.cz 141 598
linkcorreios.com.br 141 599

DOMAINS WITH THE NEAREST RANK BY TLD .hu

Domain Rank
tech2.hu 140 021
volanbusz.hu 140 058
atlatszo.hu 141 495
felvi.hu 141 545
napidroid.hu 141 575
magnetbank.hu 141 594
akcios-ujsag.hu 141 639
forbes.hu 142 120
otto.hu 142 345
ceginfo.hu 142 484
puliwood.hu 143 186